• Join FlightAware (Why Join?)
  • Login
  • US Flag 
07:38AM EDT


 

Airport Tracker/Info


-or-


 

Live Flight TrackerFlight Track Log ✈ EJA694 ✈ 23-May-2013 ✈ KBNA - KFLL

Flight Track Log - Related Links

Times and Time Zones

All times are in EDT time to prevent confusion due to time zone crossing. See the EJA694 flight status page for this flight to view local times or setup timezone preferences in your user account.

Time Position Orientation Groundspeed Altitude Reporting Facility
EDT Latitude Longitude Course Direction KTS MPH feet Rate Location/Type
05:12PM 36.1667 -86.6167 39° Northeast 224 258 4,000  Level Nashville TRACON
05:13PM 36.1833 -86.5333 76° East 303 349 7,200 3,360 Climbing Nashville TRACON
05:14PM 36.1333 -86.4833 141° Southeast 303 349 10,400 2,640 Climbing Nashville TRACON
05:15PM 36.0206 -86.4767 177° South 340 391 12,800 1,860 Climbing Memphis Center
05:16PM 35.9308 -86.4733 178° South 351 404 14,600 1,860 Climbing Memphis Center
05:17PM 35.8306 -86.4653 176° South 356 410 16,600 1,980 Climbing Memphis Center
05:18PM 35.7325 -86.4622 179° South 356 410 18,600 2,100 Climbing Memphis Center
05:20PM 35.5594 -86.4281 171° South 368 423 22,200 2,100 Climbing Atlanta Center
05:21PM 35.4536 -86.4072 171° South 378 435 24,100 1,860 Climbing Atlanta Center
05:22PM 35.3478 -86.3736 165° South 388 447 26,000 1,800 Climbing Atlanta Center
05:23PM 35.2444 -86.3175 156° South 395 455 27,700 1,500 Climbing Atlanta Center
05:24PM 35.1536 -86.2642 154° Southeast 415 478 29,100 1,500 Climbing Atlanta Center
05:25PM 35.0483 -86.2081 156° South 410 472 30,700 1,560 Climbing Atlanta Center
05:26PM 34.9386 -86.1569 159° South 415 478 32,300 1,500 Climbing Atlanta Center
05:27PM 34.8286 -86.1086 160° South 415 478 33,800 1,260 Climbing Atlanta Center
05:28PM 34.7147 -86.0603 161° South 427 491 34,900 1,020 Climbing Atlanta Center
05:29PM 34.5986 -86.0097 160° South 439 505 35,900 960 Climbing Atlanta Center
05:30PM 34.4786 -85.9564 160° South 450 518 36,900 1,020 Climbing Atlanta Center
05:31PM 34.3583 -85.9083 162° South 450 518 38,000 1,260 Climbing Atlanta Center
05:32PM 34.2461 -85.8606 161° South 450 518 39,500 1,440 Climbing Atlanta Center
05:33PM 34.1383 -85.8158 161° South 429 494 40,900 720 Climbing Atlanta Center
05:34PM 34.0222 -85.7731 163° South 405 466 41,000  Climbing Atlanta Center
05:35PM 33.9122 -85.7283 161° South 410 472 41,000  Level Atlanta Center
05:36PM 33.7958 -85.6761 160° South 430 495 41,000  Level Atlanta Center
05:37PM 33.6797 -85.6314 162° South 435 501 41,000  Level Atlanta Center
05:38PM 33.5694 -85.5844 160° South 435 501 41,000  Level Atlanta Center
05:39PM 33.4533 -85.5378 161° South 435 501 41,000  Level Atlanta Center
05:40PM 33.3556 -85.4961 160° South 435 501 41,000  Level Atlanta Center
05:41PM 33.2394 -85.4494 161° South 435 501 41,000  Level Atlanta Center
05:42PM 33.1250 -85.4006 160° South 435 501 41,000  Level Atlanta Center
05:43PM 33.0169 -85.3517 159° South 435 501 41,000  Level Atlanta Center
05:44PM 32.9047 -85.3031 160° South 430 495 41,000  Level Atlanta Center
05:45PM 32.7906 -85.2569 161° South 425 489 41,000  Level Atlanta Center
05:46PM 32.6761 -85.2136 162° South 425 489 41,000  Level Atlanta Center
05:47PM 32.5617 -85.1653 160° South 430 495 41,000  Level Atlanta Center
05:48PM 32.4494 -85.1194 161° South 430 495 41,000  Level Atlanta Center
05:49PM 32.3350 -85.0739 161° South 430 495 41,000  Level Atlanta Center
05:51PM 32.0597 -84.9664 162° South 422 486 41,000  Level Jacksonville Center
05:52PM 31.9458 -84.9197 161° South 422 486 41,000  Level Jacksonville Center
05:53PM 31.8211 -84.8731 162° South 422 486 41,000  Level Jacksonville Center
05:54PM 31.7050 -84.8292 162° South 422 486 41,000  Level Jacksonville Center
05:55PM 31.5950 -84.7828 160° South 422 486 41,000  Level Jacksonville Center
05:56PM 31.4789 -84.7367 161° South 428 493 41,000  Level Jacksonville Center
05:57PM 31.3667 -84.6833 158° South 433 498 41,000  Level Jacksonville Center
05:58PM 31.2614 -84.6133 150° Southeast 433 498 41,000  Level Jacksonville Center
05:59PM 31.1536 -84.5408 150° Southeast 438 504 41,000  Level Jacksonville Center
06:00PM 31.0439 -84.4686 151° Southeast 443 510 41,000  Level Jacksonville Center
06:01PM 30.9444 -84.4042 151° Southeast 453 521 41,000  Level Jacksonville Center
06:02PM 30.8367 -84.3322 150° Southeast 453 521 41,000  Level Jacksonville Center
06:03PM 30.7269 -84.2603 151° Southeast 453 521 41,000  Level Jacksonville Center
06:04PM 30.6169 -84.1914 152° Southeast 453 521 41,000  Level Jacksonville Center
06:05PM 30.5133 -84.1222 150° Southeast 453 521 41,000  Level Jacksonville Center
06:06PM 30.4053 -84.0486 150° Southeast 448 516 41,000  Level Jacksonville Center
06:07PM 30.2953 -83.9800 152° Southeast 448 516 41,000  Level Jacksonville Center
06:08PM 30.1853 -83.9114 152° Southeast 448 516 41,000  Level Jacksonville Center
06:09PM 30.0772 -83.8431 151° Southeast 453 521 41,000  Level Jacksonville Center
06:10PM 29.9669 -83.7750 152° Southeast 453 521 41,000  Level Jacksonville Center
06:11PM 29.8611 -83.7044 150° Southeast 453 521 41,000  Level Jacksonville Center
06:12PM 29.7528 -83.6367 151° Southeast 453 521 41,000  Level Jacksonville Center
06:13PM 29.6467 -83.5689 151° Southeast 448 516 41,000  Level Jacksonville Center
06:14PM 29.5406 -83.5014 151° Southeast 448 516 41,000  Level Jacksonville Center
06:15PM 29.4344 -83.4339 151° Southeast 438 504 41,000  Level Jacksonville Center
06:16PM 29.3283 -83.3667 151° Southeast 438 504 41,000  Level Jacksonville Center
06:17PM 29.2242 -83.2994 151° Southeast 438 504 41,000  Level Jacksonville Center
06:18PM 29.1178 -83.2347 152° Southeast 438 504 41,000  Level Jacksonville Center
06:19PM 29.0117 -83.1681 151° Southeast 438 504 41,000  Level Jacksonville Center
06:20PM 28.9094 -83.1036 151° Southeast 438 504 41,000  Level Jacksonville Center
06:21PM 28.8031 -83.0372 151° Southeast 433 498 41,000  Level Jacksonville Center
06:22PM 28.6986 -82.9706 151° Southeast 433 498 41,000  Level Jacksonville Center
06:23PM 28.5861 -82.9019 152° Southeast 433 498 41,000  Level Jacksonville Center
06:24PM 28.4797 -82.8358 151° Southeast 433 498 41,000  Level Jacksonville Center
06:25PM 28.3731 -82.7700 151° Southeast 433 498 41,000  Level Jacksonville Center
06:26PM 28.2686 -82.7042 151° Southeast 433 498 41,000  Level Jacksonville Center
06:28PM 28.0411 -82.5653 152° Southeast 438 504 41,000  Level Miami Center
06:29PM 27.9311 -82.5033 154° Southeast 443 510 41,000 -660 Level Miami Center
06:30PM 27.8200 -82.4628 162° South 435 501 39,700 -1,620 Descending Miami Center
06:31PM 27.7092 -82.4175 160° South 429 494 37,800 -2,040 Descending Miami Center
06:32PM 27.5814 -82.3739 163° South 425 489 35,700 -1,920 Descending Miami Center
06:33PM 27.4703 -82.3311 161° South 425 489 34,000 -1,800 Descending Miami Center
06:34PM 27.3592 -82.2883 161° South 430 495 32,200 -1,800 Descending Miami Center
06:35PM 27.2703 -82.2142 143° Southeast 430 495 30,500 -1,800 Descending Miami Center
06:36PM 27.1714 -82.1231 141° Southeast 450 518 28,700 -1,980 Descending Miami Center
06:37PM 27.0622 -82.0250 141° Southeast 464 534 26,600 -1,800 Descending Miami Center
06:38PM 26.9731 -81.9442 141° Southeast 459 528 25,100 -1,680 Descending Miami Center
06:39PM 26.8783 -81.8492 138° Southeast 459 528 23,300 -1,800 Descending Miami Center
06:40PM 26.7919 -81.7478 134° Southeast 454 522 21,500 -2,040 Descending Miami Center
06:41PM 26.7056 -81.6444 133° Southeast 429 494 19,300 -1,260 Descending Miami Center
06:42PM 26.6272 -81.5553 134° Southeast 406 467 19,000 -900 Descending Miami Center
06:43PM 26.5506 -81.4686 135° Southeast 399 459 17,600 -1,500 Descending Miami Center
06:44PM 26.4781 -81.3869 135° Southeast 399 459 16,000 -1,740 Descending Miami Center
06:45PM 26.4014 -81.3028 135° Southeast 399 459 14,200 -1,800 Descending Miami Center
06:46PM 26.3286 -81.2189 134° Southeast 387 445 12,400 -1,920 Descending Miami Center
06:47PM 26.2739 -81.1636 138° Southeast 346 398 11,100 -1,740 Descending Miami Center
06:47PM 26.2600 -81.1422 126° Southeast 370 426 10,700 -1,740 Descending Miami Center
06:48PM 26.1931 -81.0750 138° Southeast 303 349 8,800 -1,380 Descending Miami Center
06:49PM 26.1342 -81.0083 135° Southeast 297 342 8,000 -840 Descending Miami Center
06:50PM 26.0906 -80.9328 123° Southeast 273 314 7,200 -1,020 Descending Miami Center
06:51PM 26.0761 -80.8514 101° East 254 292 6,000 -660 Descending Miami Center
06:52PM 26.0778 -80.7867 88° East 250 288 5,900 -60 Descending Miami Center
06:53PM 26.0797 -80.7150 88° East 237 273 5,900 -180 Level Miami Center
06:54PM 26.0794 -80.6433 90° East 232 267 5,600 -480 Descending Miami Center
06:55PM 26.0772 -80.5647 92° East 243 280 5,000 -360 Descending Miami Center
06:56PM 26.0789 -80.4975 88° East 232 267 4,900 -480 Descending Miami Center
06:57PM 26.0747 -80.4164 93° East 231 266 4,100 -960 Descending Miami Center
06:58PM 26.0742 -80.3472 90° East 218 251 3,000 -1,140 Descending Miami Center
06:59PM 26.0736 -80.2869 91° East 201 231 2,000 -960 Descending Miami Center
07:00PM 26.0750 -80.2314 88° East 139 160 1,100 -780 Descending Miami Center
07:01PM 26.0736 -80.1922 92° East 125 144 400 -720 Descending Miami Center
07:03PM 26.0667 -80.1500 180° South  Level FlightAware Approximate
07:10PM 26.0726 -80.1527 180° South  Level Estimated